sensor_id;sensor_type;location;lat;lon;timestamp;temperature;humidity
19302;DHT22;9785;59.362;12.152;2023-09-18T00:02:21;9.30;99.90
19302;DHT22;9785;59.362;12.152;2023-09-18T00:04:49;9.40;99.90
19302;DHT22;9785;59.362;12.152;2023-09-18T00:07:18;9.30;99.90
19302;DHT22;9785;59.362;12.152;2023-09-18T00:09:46;9.40;99.90
19302;DHT22;9785;59.362;12.152;2023-09-18T00:12:17;9.50;99.90
19302;DHT22;9785;59.362;12.152;2023-09-18T00:14:48;9.50;99.90
19302;DHT22;9785;59.362;12.152;2023-09-18T00:17:16;9.60;99.90
19302;DHT22;9785;59.362;12.152;2023-09-18T00:19:46;9.60;99.90
19302;DHT22;9785;59.362;12.152;2023-09-18T00:22:14;9.70;99.90
19302;DHT22;9785;59.362;12.152;2023-09-18T00:24:43;9.80;99.90
19302;DHT22;9785;59.362;12.152;2023-09-18T00:27:11;9.80;99.90
19302;DHT22;9785;59.362;12.152;2023-09-18T00:29:42;9.90;99.90
19302;DHT22;9785;59.362;12.152;2023-09-18T00:32:10;10.00;99.90
19302;DHT22;9785;59.362;12.152;2023-09-18T00:34:38;10.00;99.90
19302;DHT22;9785;59.362;12.152;2023-09-18T00:37:07;10.10;99.90
19302;DHT22;9785;59.362;12.152;2023-09-18T00:39:37;10.10;99.90
19302;DHT22;9785;59.362;12.152;2023-09-18T00:42:06;10.20;99.90
19302;DHT22;9785;59.362;12.152;2023-09-18T00:44:34;10.30;99.90
19302;DHT22;9785;59.362;12.152;2023-09-18T00:47:04;10.40;99.90
19302;DHT22;9785;59.362;12.152;2023-09-18T00:49:33;10.50;99.90
19302;DHT22;9785;59.362;12.152;2023-09-18T00:52:02;10.50;99.90
19302;DHT22;9785;59.362;12.152;2023-09-18T00:54:31;10.50;99.90
19302;DHT22;9785;59.362;12.152;2023-09-18T00:57:01;10.60;99.90
19302;DHT22;9785;59.362;12.152;2023-09-18T00:59:29;10.60;99.90
19302;DHT22;9785;59.362;12.152;2023-09-18T01:01:59;10.70;99.90
19302;DHT22;9785;59.362;12.152;2023-09-18T01:04:30;10.70;99.90
19302;DHT22;9785;59.362;12.152;2023-09-18T01:06:59;10.80;99.90
19302;DHT22;9785;59.362;12.152;2023-09-18T01:09:31;10.80;99.90
19302;DHT22;9785;59.362;12.152;2023-09-18T01:12:03;10.80;99.90
19302;DHT22;9785;59.362;12.152;2023-09-18T01:14:37;10.90;99.90
19302;DHT22;9785;59.362;12.152;2023-09-18T01:17:10;10.90;99.90
19302;DHT22;9785;59.362;12.152;2023-09-18T01:19:41;10.90;99.90
19302;DHT22;9785;59.362;12.152;2023-09-18T01:22:12;10.90;99.90
19302;DHT22;9785;59.362;12.152;2023-09-18T01:24:46;10.90;99.90
19302;DHT22;9785;59.362;12.152;2023-09-18T01:27:16;11.00;99.90
19302;DHT22;9785;59.362;12.152;2023-09-18T01:29:45;11.00;99.90
19302;DHT22;9785;59.362;12.152;2023-09-18T01:32:14;11.00;99.90
19302;DHT22;9785;59.362;12.152;2023-09-18T01:34:46;11.10;99.90
19302;DHT22;9785;59.362;12.152;2023-09-18T01:37:17;11.10;99.90
19302;DHT22;9785;59.362;12.152;2023-09-18T01:39:50;11.10;99.90
19302;DHT22;9785;59.362;12.152;2023-09-18T01:42:20;11.10;99.90
19302;DHT22;9785;59.362;12.152;2023-09-18T01:44:48;11.20;99.90
19302;DHT22;9785;59.362;12.152;2023-09-18T01:47:19;11.10;99.90
19302;DHT22;9785;59.362;12.152;2023-09-18T01:49:48;11.20;99.90
19302;DHT22;9785;59.362;12.152;2023-09-18T01:52:16;11.20;99.90
19302;DHT22;9785;59.362;12.152;2023-09-18T01:54:46;11.20;99.90
19302;DHT22;9785;59.362;12.152;2023-09-18T01:57:16;11.20;99.90
19302;DHT22;9785;59.362;12.152;2023-09-18T01:59:44;11.10;99.90
19302;DHT22;9785;59.362;12.152;2023-09-18T02:02:13;11.20;99.90
19302;DHT22;9785;59.362;12.152;2023-09-18T02:04:51;11.30;99.90
19302;DHT22;9785;59.362;12.152;2023-09-18T02:07:36;11.30;99.90
19302;DHT22;9785;59.362;12.152;2023-09-18T02:10:05;11.30;99.90
19302;DHT22;9785;59.362;12.152;2023-09-18T02:12:35;11.30;99.90
19302;DHT22;9785;59.362;12.152;2023-09-18T02:15:04;11.30;99.90
19302;DHT22;9785;59.362;12.152;2023-09-18T02:17:33;11.20;99.90
19302;DHT22;9785;59.362;12.152;2023-09-18T02:20:03;11.20;99.90
19302;DHT22;9785;59.362;12.152;2023-09-18T02:22:39;11.20;99.90
19302;DHT22;9785;59.362;12.152;2023-09-18T02:25:08;11.30;99.90
19302;DHT22;9785;59.362;12.152;2023-09-18T02:27:38;11.20;99.90
19302;DHT22;9785;59.362;12.152;2023-09-18T02:30:07;11.30;99.90
19302;DHT22;9785;59.362;12.152;2023-09-18T02:32:36;11.30;99.90
19302;DHT22;9785;59.362;12.152;2023-09-18T02:35:06;11.30;99.90
19302;DHT22;9785;59.362;12.152;2023-09-18T02:37:35;11.30;99.90
19302;DHT22;9785;59.362;12.152;2023-09-18T02:40:04;11.20;99.90
19302;DHT22;9785;59.362;12.152;2023-09-18T02:42:34;11.20;99.90
19302;DHT22;9785;59.362;12.152;2023-09-18T02:45:05;11.20;99.90
19302;DHT22;9785;59.362;12.152;2023-09-18T02:47:35;11.20;99.90
19302;DHT22;9785;59.362;12.152;2023-09-18T02:50:05;11.30;99.90
19302;DHT22;9785;59.362;12.152;2023-09-18T02:52:34;11.30;99.90
19302;DHT22;9785;59.362;12.152;2023-09-18T02:55:02;11.30;99.90
19302;DHT22;9785;59.362;12.152;2023-09-18T02:57:31;11.30;99.90
19302;DHT22;9785;59.362;12.152;2023-09-18T02:59:59;11.40;99.90
19302;DHT22;9785;59.362;12.152;2023-09-18T03:02:29;11.40;99.90
19302;DHT22;9785;59.362;12.152;2023-09-18T03:04:58;11.30;99.90
19302;DHT22;9785;59.362;12.152;2023-09-18T03:07:26;11.40;99.90
19302;DHT22;9785;59.362;12.152;2023-09-18T03:09:56;11.40;99.90
19302;DHT22;9785;59.362;12.152;2023-09-18T03:12:24;11.40;99.90
19302;DHT22;9785;59.362;12.152;2023-09-18T03:14:53;11.50;99.90
19302;DHT22;9785;59.362;12.152;2023-09-18T03:17:21;11.50;99.90
19302;DHT22;9785;59.362;12.152;2023-09-18T03:19:51;11.50;99.90
19302;DHT22;9785;59.362;12.152;2023-09-18T03:22:19;11.60;99.90
19302;DHT22;9785;59.362;12.152;2023-09-18T03:24:48;11.50;99.90
19302;DHT22;9785;59.362;12.152;2023-09-18T03:27:16;11.50;99.90
19302;DHT22;9785;59.362;12.152;2023-09-18T03:29:44;11.50;99.90
19302;DHT22;9785;59.362;12.152;2023-09-18T03:32:12;11.50;99.90
19302;DHT22;9785;59.362;12.152;2023-09-18T03:34:41;11.50;99.90
19302;DHT22;9785;59.362;12.152;2023-09-18T03:37:11;11.50;99.90
19302;DHT22;9785;59.362;12.152;2023-09-18T03:39:39;11.60;99.90
19302;DHT22;9785;59.362;12.152;2023-09-18T03:42:08;11.60;99.90
19302;DHT22;9785;59.362;12.152;2023-09-18T03:44:36;11.60;99.90
19302;DHT22;9785;59.362;12.152;2023-09-18T03:47:05;11.50;99.90
19302;DHT22;9785;59.362;12.152;2023-09-18T03:49:33;11.60;99.90
19302;DHT22;9785;59.362;12.152;2023-09-18T03:52:02;11.70;99.90
19302;DHT22;9785;59.362;12.152;2023-09-18T03:54:32;11.70;99.90
19302;DHT22;9785;59.362;12.152;2023-09-18T03:57:00;11.70;99.90
19302;DHT22;9785;59.362;12.152;2023-09-18T03:59:28;11.70;99.90
19302;DHT22;9785;59.362;12.152;2023-09-18T04:01:57;11.70;99.90
19302;DHT22;9785;59.362;12.152;2023-09-18T04:04:25;11.60;99.90
19302;DHT22;9785;59.362;12.152;2023-09-18T04:06:55;11.70;99.90
19302;DHT22;9785;59.362;12.152;2023-09-18T04:09:24;11.70;99.90
19302;DHT22;9785;59.362;12.152;2023-09-18T04:11:53;11.80;99.90
19302;DHT22;9785;59.362;12.152;2023-09-18T04:14:22;11.80;99.90
19302;DHT22;9785;59.362;12.152;2023-09-18T04:16:50;11.70;99.90
19302;DHT22;9785;59.362;12.152;2023-09-18T04:19:20;11.80;99.90
19302;DHT22;9785;59.362;12.152;2023-09-18T04:21:48;11.80;99.90
19302;DHT22;9785;59.362;12.152;2023-09-18T04:24:16;11.80;99.90
19302;DHT22;9785;59.362;12.152;2023-09-18T04:26:46;11.80;99.90
19302;DHT22;9785;59.362;12.152;2023-09-18T04:29:15;11.70;99.90
19302;DHT22;9785;59.362;12.152;2023-09-18T04:31:44;11.70;99.90
19302;DHT22;9785;59.362;12.152;2023-09-18T04:34:14;11.80;99.90
19302;DHT22;9785;59.362;12.152;2023-09-18T04:36:42;11.80;99.90
19302;DHT22;9785;59.362;12.152;2023-09-18T04:39:11;11.80;99.90
19302;DHT22;9785;59.362;12.152;2023-09-18T04:41:39;11.80;99.90
19302;DHT22;9785;59.362;12.152;2023-09-18T04:44:08;11.80;99.90
19302;DHT22;9785;59.362;12.152;2023-09-18T04:46:41;11.80;99.90
19302;DHT22;9785;59.362;12.152;2023-09-18T04:49:10;11.90;99.90
19302;DHT22;9785;59.362;12.152;2023-09-18T04:51:38;11.90;99.90
19302;DHT22;9785;59.362;12.152;2023-09-18T04:54:08;11.90;99.90
19302;DHT22;9785;59.362;12.152;2023-09-18T04:56:37;11.80;99.90
19302;DHT22;9785;59.362;12.152;2023-09-18T04:59:05;11.90;99.90
19302;DHT22;9785;59.362;12.152;2023-09-18T05:01:34;11.90;99.90
19302;DHT22;9785;59.362;12.152;2023-09-18T05:04:04;11.90;99.90
19302;DHT22;9785;59.362;12.152;2023-09-18T05:06:33;11.90;99.90
19302;DHT22;9785;59.362;12.152;2023-09-18T05:09:01;12.00;99.90
19302;DHT22;9785;59.362;12.152;2023-09-18T05:11:29;12.00;99.90
19302;DHT22;9785;59.362;12.152;2023-09-18T05:13:58;12.00;99.90
19302;DHT22;9785;59.362;12.152;2023-09-18T05:16:26;12.00;99.90
19302;DHT22;9785;59.362;12.152;2023-09-18T05:18:55;12.10;99.90
19302;DHT22;9785;59.362;12.152;2023-09-18T05:21:25;12.10;99.90
19302;DHT22;9785;59.362;12.152;2023-09-18T05:23:54;12.10;99.90
19302;DHT22;9785;59.362;12.152;2023-09-18T05:26:22;12.10;99.90
19302;DHT22;9785;59.362;12.152;2023-09-18T05:28:51;12.10;99.90
19302;DHT22;9785;59.362;12.152;2023-09-18T05:31:22;12.10;99.90
19302;DHT22;9785;59.362;12.152;2023-09-18T05:33:51;12.10;99.90
19302;DHT22;9785;59.362;12.152;2023-09-18T05:36:19;12.10;99.90
19302;DHT22;9785;59.362;12.152;2023-09-18T05:38:49;12.10;99.90
19302;DHT22;9785;59.362;12.152;2023-09-18T05:41:18;12.10;99.90
19302;DHT22;9785;59.362;12.152;2023-09-18T05:43:46;12.10;99.90
19302;DHT22;9785;59.362;12.152;2023-09-18T05:46:15;12.10;99.90
19302;DHT22;9785;59.362;12.152;2023-09-18T05:48:43;12.10;99.90
19302;DHT22;9785;59.362;12.152;2023-09-18T05:51:11;12.10;99.90
19302;DHT22;9785;59.362;12.152;2023-09-18T05:53:40;12.10;99.90
19302;DHT22;9785;59.362;12.152;2023-09-18T05:56:10;12.10;99.90
19302;DHT22;9785;59.362;12.152;2023-09-18T05:58:38;12.10;99.90
19302;DHT22;9785;59.362;12.152;2023-09-18T06:01:06;12.10;99.90
19302;DHT22;9785;59.362;12.152;2023-09-18T06:03:35;12.10;99.90
19302;DHT22;9785;59.362;12.152;2023-09-18T06:06:04;12.10;99.90
19302;DHT22;9785;59.362;12.152;2023-09-18T06:08:33;12.10;99.90
19302;DHT22;9785;59.362;12.152;2023-09-18T06:11:02;12.10;99.90
19302;DHT22;9785;59.362;12.152;2023-09-18T06:13:32;12.10;99.90
19302;DHT22;9785;59.362;12.152;2023-09-18T06:16:01;12.20;99.90
19302;DHT22;9785;59.362;12.152;2023-09-18T06:18:34;12.20;99.90
19302;DHT22;9785;59.362;12.152;2023-09-18T06:21:05;12.20;99.90
19302;DHT22;9785;59.362;12.152;2023-09-18T06:23:33;12.20;99.90
19302;DHT22;9785;59.362;12.152;2023-09-18T06:26:02;12.20;99.90
19302;DHT22;9785;59.362;12.152;2023-09-18T06:28:33;12.20;99.90
19302;DHT22;9785;59.362;12.152;2023-09-18T06:31:01;12.20;99.90
19302;DHT22;9785;59.362;12.152;2023-09-18T06:33:30;12.20;99.90
19302;DHT22;9785;59.362;12.152;2023-09-18T06:35:58;12.20;99.90
19302;DHT22;9785;59.362;12.152;2023-09-18T06:38:27;12.30;99.90
19302;DHT22;9785;59.362;12.152;2023-09-18T06:40:56;12.30;99.90
19302;DHT22;9785;59.362;12.152;2023-09-18T06:43:24;12.30;99.90
19302;DHT22;9785;59.362;12.152;2023-09-18T06:45:54;12.40;99.90
19302;DHT22;9785;59.362;12.152;2023-09-18T06:48:24;12.30;99.90
19302;DHT22;9785;59.362;12.152;2023-09-18T06:50:53;12.30;99.90
19302;DHT22;9785;59.362;12.152;2023-09-18T06:53:21;12.30;99.90
19302;DHT22;9785;59.362;12.152;2023-09-18T06:55:50;12.30;99.90
19302;DHT22;9785;59.362;12.152;2023-09-18T06:58:18;12.40;99.90
19302;DHT22;9785;59.362;12.152;2023-09-18T07:00:47;12.40;99.90
19302;DHT22;9785;59.362;12.152;2023-09-18T07:03:19;12.40;99.90
19302;DHT22;9785;59.362;12.152;2023-09-18T07:05:49;12.40;99.90
19302;DHT22;9785;59.362;12.152;2023-09-18T07:08:17;12.40;99.90
19302;DHT22;9785;59.362;12.152;2023-09-18T07:10:50;12.50;99.90
19302;DHT22;9785;59.362;12.152;2023-09-18T07:13:19;12.40;99.90
19302;DHT22;9785;59.362;12.152;2023-09-18T07:15:47;12.50;99.90
19302;DHT22;9785;59.362;12.152;2023-09-18T07:18:16;12.50;99.90
19302;DHT22;9785;59.362;12.152;2023-09-18T07:20:46;12.50;99.90
19302;DHT22;9785;59.362;12.152;2023-09-18T07:23:14;12.50;99.90
19302;DHT22;9785;59.362;12.152;2023-09-18T07:25:43;12.40;99.90
19302;DHT22;9785;59.362;12.152;2023-09-18T07:28:12;12.50;99.90
19302;DHT22;9785;59.362;12.152;2023-09-18T07:30:44;12.60;99.90
19302;DHT22;9785;59.362;12.152;2023-09-18T07:33:13;12.60;99.90
19302;DHT22;9785;59.362;12.152;2023-09-18T07:35:47;12.70;99.90
19302;DHT22;9785;59.362;12.152;2023-09-18T07:38:16;12.70;99.90
19302;DHT22;9785;59.362;12.152;2023-09-18T07:40:46;12.80;99.90
19302;DHT22;9785;59.362;12.152;2023-09-18T07:43:14;12.90;99.90
19302;DHT22;9785;59.362;12.152;2023-09-18T07:45:43;12.90;99.90
19302;DHT22;9785;59.362;12.152;2023-09-18T07:48:11;13.00;99.90
19302;DHT22;9785;59.362;12.152;2023-09-18T07:50:43;13.00;99.90
19302;DHT22;9785;59.362;12.152;2023-09-18T07:53:13;13.10;99.90
19302;DHT22;9785;59.362;12.152;2023-09-18T07:55:42;13.10;99.90
19302;DHT22;9785;59.362;12.152;2023-09-18T07:58:10;13.00;99.90
19302;DHT22;9785;59.362;12.152;2023-09-18T08:00:39;13.10;99.90
19302;DHT22;9785;59.362;12.152;2023-09-18T08:03:10;13.10;99.90
19302;DHT22;9785;59.362;12.152;2023-09-18T08:05:39;13.20;99.90
19302;DHT22;9785;59.362;12.152;2023-09-18T08:08:08;13.20;99.90
19302;DHT22;9785;59.362;12.152;2023-09-18T08:10:38;13.10;99.90
19302;DHT22;9785;59.362;12.152;2023-09-18T08:13:07;13.00;99.90
19302;DHT22;9785;59.362;12.152;2023-09-18T08:15:36;13.10;99.90
19302;DHT22;9785;59.362;12.152;2023-09-18T08:18:05;13.10;99.90
19302;DHT22;9785;59.362;12.152;2023-09-18T08:20:33;13.10;99.90
19302;DHT22;9785;59.362;12.152;2023-09-18T08:23:03;13.10;99.90
19302;DHT22;9785;59.362;12.152;2023-09-18T08:25:32;13.20;99.90
19302;DHT22;9785;59.362;12.152;2023-09-18T08:28:02;13.30;99.90
19302;DHT22;9785;59.362;12.152;2023-09-18T08:30:35;13.40;99.90
19302;DHT22;9785;59.362;12.152;2023-09-18T08:33:04;13.60;99.90
19302;DHT22;9785;59.362;12.152;2023-09-18T08:35:33;13.70;99.90
19302;DHT22;9785;59.362;12.152;2023-09-18T08:38:02;13.60;99.90
19302;DHT22;9785;59.362;12.152;2023-09-18T08:40:30;13.60;99.90
19302;DHT22;9785;59.362;12.152;2023-09-18T08:42:59;13.80;99.90
19302;DHT22;9785;59.362;12.152;2023-09-18T08:45:35;13.90;99.90
19302;DHT22;9785;59.362;12.152;2023-09-18T08:48:06;14.00;99.90
19302;DHT22;9785;59.362;12.152;2023-09-18T08:50:36;14.00;99.90
19302;DHT22;9785;59.362;12.152;2023-09-18T08:53:06;14.20;99.90
19302;DHT22;9785;59.362;12.152;2023-09-18T08:55:34;14.40;99.90
19302;DHT22;9785;59.362;12.152;2023-09-18T08:58:03;14.60;99.90
19302;DHT22;9785;59.362;12.152;2023-09-18T09:00:33;14.50;99.90
19302;DHT22;9785;59.362;12.152;2023-09-18T09:03:03;14.60;99.90
19302;DHT22;9785;59.362;12.152;2023-09-18T09:05:33;14.60;99.90
19302;DHT22;9785;59.362;12.152;2023-09-18T09:08:03;14.50;99.90
19302;DHT22;9785;59.362;12.152;2023-09-18T09:10:31;14.60;99.90
19302;DHT22;9785;59.362;12.152;2023-09-18T09:13:00;14.70;99.90
19302;DHT22;9785;59.362;12.152;2023-09-18T09:15:34;14.90;99.90
19302;DHT22;9785;59.362;12.152;2023-09-18T09:18:13;14.90;99.90
19302;DHT22;9785;59.362;12.152;2023-09-18T09:20:52;15.10;99.90
19302;DHT22;9785;59.362;12.152;2023-09-18T09:23:21;15.20;99.90
19302;DHT22;9785;59.362;12.152;2023-09-18T09:25:50;15.40;99.90
19302;DHT22;9785;59.362;12.152;2023-09-18T09:28:29;15.50;99.90
19302;DHT22;9785;59.362;12.152;2023-09-18T09:31:03;15.70;99.90
19302;DHT22;9785;59.362;12.152;2023-09-18T09:33:32;15.90;99.90
19302;DHT22;9785;59.362;12.152;2023-09-18T09:36:05;15.70;99.90
19302;DHT22;9785;59.362;12.152;2023-09-18T09:38:34;15.40;99.90
19302;DHT22;9785;59.362;12.152;2023-09-18T09:41:04;15.10;99.90
19302;DHT22;9785;59.362;12.152;2023-09-18T09:43:34;15.00;99.90
19302;DHT22;9785;59.362;12.152;2023-09-18T09:46:03;15.00;99.90
19302;DHT22;9785;59.362;12.152;2023-09-18T09:48:32;15.20;99.90
19302;DHT22;9785;59.362;12.152;2023-09-18T09:51:01;15.10;99.90
19302;DHT22;9785;59.362;12.152;2023-09-18T09:53:43;15.10;99.90
19302;DHT22;9785;59.362;12.152;2023-09-18T09:56:12;15.00;99.90
19302;DHT22;9785;59.362;12.152;2023-09-18T09:58:40;15.20;99.90
19302;DHT22;9785;59.362;12.152;2023-09-18T10:01:13;15.20;99.90
19302;DHT22;9785;59.362;12.152;2023-09-18T10:03:45;15.10;99.90
19302;DHT22;9785;59.362;12.152;2023-09-18T10:06:14;15.00;99.90
19302;DHT22;9785;59.362;12.152;2023-09-18T10:08:44;15.00;99.90
19302;DHT22;9785;59.362;12.152;2023-09-18T10:11:13;15.10;99.90
19302;DHT22;9785;59.362;12.152;2023-09-18T10:13:47;15.00;99.90
19302;DHT22;9785;59.362;12.152;2023-09-18T10:16:18;14.90;99.90
19302;DHT22;9785;59.362;12.152;2023-09-18T10:18:56;14.90;99.90
19302;DHT22;9785;59.362;12.152;2023-09-18T10:21:33;15.00;99.90
19302;DHT22;9785;59.362;12.152;2023-09-18T10:24:11;14.90;99.90
19302;DHT22;9785;59.362;12.152;2023-09-18T10:26:48;14.80;99.90
19302;DHT22;9785;59.362;12.152;2023-09-18T10:29:19;14.60;99.90
19302;DHT22;9785;59.362;12.152;2023-09-18T10:31:51;14.50;99.90
19302;DHT22;9785;59.362;12.152;2023-09-18T10:34:20;14.50;99.90
19302;DHT22;9785;59.362;12.152;2023-09-18T10:36:50;14.50;99.90
19302;DHT22;9785;59.362;12.152;2023-09-18T10:39:20;14.50;99.90
19302;DHT22;9785;59.362;12.152;2023-09-18T10:41:52;14.60;99.90
19302;DHT22;9785;59.362;12.152;2023-09-18T10:44:23;14.60;99.90
19302;DHT22;9785;59.362;12.152;2023-09-18T10:46:53;14.70;99.90
19302;DHT22;9785;59.362;12.152;2023-09-18T10:49:22;14.70;99.90
19302;DHT22;9785;59.362;12.152;2023-09-18T10:51:54;14.60;99.90
19302;DHT22;9785;59.362;12.152;2023-09-18T10:54:24;14.70;99.90
19302;DHT22;9785;59.362;12.152;2023-09-18T10:56:53;14.60;99.90
19302;DHT22;9785;59.362;12.152;2023-09-18T10:59:23;14.40;99.90
19302;DHT22;9785;59.362;12.152;2023-09-18T11:01:53;14.20;99.90
19302;DHT22;9785;59.362;12.152;2023-09-18T11:04:23;14.10;99.90
19302;DHT22;9785;59.362;12.152;2023-09-18T11:07:04;14.10;99.90
19302;DHT22;9785;59.362;12.152;2023-09-18T11:09:42;14.20;99.90
19302;DHT22;9785;59.362;12.152;2023-09-18T11:12:11;14.30;99.90
19302;DHT22;9785;59.362;12.152;2023-09-18T11:14:44;14.30;99.90
19302;DHT22;9785;59.362;12.152;2023-09-18T11:17:41;14.30;99.90
19302;DHT22;9785;59.362;12.152;2023-09-18T11:20:16;14.30;99.90
19302;DHT22;9785;59.362;12.152;2023-09-18T11:22:49;14.20;99.90
19302;DHT22;9785;59.362;12.152;2023-09-18T11:25:36;14.20;99.90
19302;DHT22;9785;59.362;12.152;2023-09-18T11:28:06;14.10;99.90
19302;DHT22;9785;59.362;12.152;2023-09-18T11:30:36;14.10;99.90
19302;DHT22;9785;59.362;12.152;2023-09-18T11:33:07;14.10;99.90
19302;DHT22;9785;59.362;12.152;2023-09-18T11:35:36;14.10;99.90
19302;DHT22;9785;59.362;12.152;2023-09-18T11:38:06;14.20;99.90
19302;DHT22;9785;59.362;12.152;2023-09-18T11:40:36;14.10;99.90
19302;DHT22;9785;59.362;12.152;2023-09-18T11:43:19;14.10;99.90
19302;DHT22;9785;59.362;12.152;2023-09-18T11:45:51;14.00;99.90
19302;DHT22;9785;59.362;12.152;2023-09-18T11:48:23;13.90;99.90
19302;DHT22;9785;59.362;12.152;2023-09-18T11:50:57;14.00;99.90
19302;DHT22;9785;59.362;12.152;2023-09-18T11:53:27;14.10;99.90
19302;DHT22;9785;59.362;12.152;2023-09-18T11:55:56;14.10;99.90
19302;DHT22;9785;59.362;12.152;2023-09-18T11:58:25;14.20;99.90
19302;DHT22;9785;59.362;12.152;2023-09-18T12:00:55;14.30;99.90
19302;DHT22;9785;59.362;12.152;2023-09-18T12:03:25;14.30;99.90
19302;DHT22;9785;59.362;12.152;2023-09-18T12:05:56;14.30;99.90
19302;DHT22;9785;59.362;12.152;2023-09-18T12:08:26;14.30;99.90
19302;DHT22;9785;59.362;12.152;2023-09-18T12:10:56;14.30;99.90
19302;DHT22;9785;59.362;12.152;2023-09-18T12:13:25;14.30;99.90
19302;DHT22;9785;59.362;12.152;2023-09-18T12:15:57;14.30;99.90
19302;DHT22;9785;59.362;12.152;2023-09-18T12:18:28;14.40;99.90
19302;DHT22;9785;59.362;12.152;2023-09-18T12:20:57;14.40;99.90
19302;DHT22;9785;59.362;12.152;2023-09-18T12:23:26;14.50;99.90
19302;DHT22;9785;59.362;12.152;2023-09-18T12:26:00;14.60;99.90
19302;DHT22;9785;59.362;12.152;2023-09-18T12:28:31;14.60;99.90
19302;DHT22;9785;59.362;12.152;2023-09-18T12:31:01;14.60;99.90
19302;DHT22;9785;59.362;12.152;2023-09-18T12:33:36;14.70;99.90
19302;DHT22;9785;59.362;12.152;2023-09-18T12:36:06;14.70;99.90
19302;DHT22;9785;59.362;12.152;2023-09-18T12:38:35;14.70;99.90
19302;DHT22;9785;59.362;12.152;2023-09-18T12:41:05;14.70;99.90
19302;DHT22;9785;59.362;12.152;2023-09-18T12:43:38;14.70;99.90
19302;DHT22;9785;59.362;12.152;2023-09-18T12:46:09;14.70;99.90
19302;DHT22;9785;59.362;12.152;2023-09-18T12:48:39;14.70;99.90
19302;DHT22;9785;59.362;12.152;2023-09-18T12:51:13;14.60;99.90
19302;DHT22;9785;59.362;12.152;2023-09-18T12:53:43;14.60;99.90
19302;DHT22;9785;59.362;12.152;2023-09-18T12:56:12;14.50;99.90
19302;DHT22;9785;59.362;12.152;2023-09-18T12:58:41;14.50;99.90
19302;DHT22;9785;59.362;12.152;2023-09-18T13:01:30;14.50;99.90
19302;DHT22;9785;59.362;12.152;2023-09-18T13:04:00;14.50;99.90
19302;DHT22;9785;59.362;12.152;2023-09-18T13:06:33;14.50;99.90
19302;DHT22;9785;59.362;12.152;2023-09-18T13:09:15;14.50;99.90
19302;DHT22;9785;59.362;12.152;2023-09-18T13:11:55;14.60;99.90
19302;DHT22;9785;59.362;12.152;2023-09-18T13:14:23;14.40;99.90
19302;DHT22;9785;59.362;12.152;2023-09-18T13:16:52;14.30;99.90
19302;DHT22;9785;59.362;12.152;2023-09-18T13:19:22;14.20;99.90
19302;DHT22;9785;59.362;12.152;2023-09-18T13:21:50;14.10;99.90
19302;DHT22;9785;59.362;12.152;2023-09-18T13:24:30;14.10;99.90
19302;DHT22;9785;59.362;12.152;2023-09-18T13:26:59;14.20;99.90
19302;DHT22;9785;59.362;12.152;2023-09-18T13:29:27;14.20;99.90
19302;DHT22;9785;59.362;12.152;2023-09-18T13:31:56;14.20;99.90
19302;DHT22;9785;59.362;12.152;2023-09-18T13:34:28;14.10;99.90
19302;DHT22;9785;59.362;12.152;2023-09-18T13:36:58;14.20;99.90
19302;DHT22;9785;59.362;12.152;2023-09-18T13:39:27;14.10;99.90
19302;DHT22;9785;59.362;12.152;2023-09-18T13:41:55;14.10;99.90
19302;DHT22;9785;59.362;12.152;2023-09-18T13:44:24;14.10;99.90
19302;DHT22;9785;59.362;12.152;2023-09-18T13:46:52;14.10;99.90
19302;DHT22;9785;59.362;12.152;2023-09-18T13:49:21;14.10;99.90
19302;DHT22;9785;59.362;12.152;2023-09-18T13:51:54;14.10;99.90
19302;DHT22;9785;59.362;12.152;2023-09-18T13:54:25;14.10;99.90
19302;DHT22;9785;59.362;12.152;2023-09-18T13:56:53;14.20;99.90
19302;DHT22;9785;59.362;12.152;2023-09-18T13:59:24;14.10;99.90
19302;DHT22;9785;59.362;12.152;2023-09-18T14:01:53;14.00;99.90
19302;DHT22;9785;59.362;12.152;2023-09-18T14:04:22;14.00;99.90
19302;DHT22;9785;59.362;12.152;2023-09-18T14:06:50;13.90;99.90
19302;DHT22;9785;59.362;12.152;2023-09-18T14:09:20;13.80;99.90
19302;DHT22;9785;59.362;12.152;2023-09-18T14:11:49;13.80;99.90
19302;DHT22;9785;59.362;12.152;2023-09-18T14:14:17;13.70;99.90
19302;DHT22;9785;59.362;12.152;2023-09-18T14:16:45;13.70;99.90
19302;DHT22;9785;59.362;12.152;2023-09-18T14:19:14;13.70;99.90
19302;DHT22;9785;59.362;12.152;2023-09-18T14:21:42;13.80;99.90
19302;DHT22;9785;59.362;12.152;2023-09-18T14:24:11;13.80;99.90
19302;DHT22;9785;59.362;12.152;2023-09-18T14:26:41;13.80;99.90
19302;DHT22;9785;59.362;12.152;2023-09-18T14:29:10;13.90;99.90
19302;DHT22;9785;59.362;12.152;2023-09-18T14:31:39;13.90;99.90
19302;DHT22;9785;59.362;12.152;2023-09-18T14:34:07;13.90;99.90
19302;DHT22;9785;59.362;12.152;2023-09-18T14:36:36;14.00;99.90
19302;DHT22;9785;59.362;12.152;2023-09-18T14:39:06;14.00;99.90
19302;DHT22;9785;59.362;12.152;2023-09-18T14:41:35;14.10;99.90
19302;DHT22;9785;59.362;12.152;2023-09-18T14:44:07;14.00;99.90
19302;DHT22;9785;59.362;12.152;2023-09-18T14:46:37;14.00;99.90
19302;DHT22;9785;59.362;12.152;2023-09-18T14:49:06;14.00;99.90
19302;DHT22;9785;59.362;12.152;2023-09-18T14:51:35;14.00;99.90
19302;DHT22;9785;59.362;12.152;2023-09-18T14:54:04;13.90;99.90
19302;DHT22;9785;59.362;12.152;2023-09-18T14:56:33;13.90;99.90
19302;DHT22;9785;59.362;12.152;2023-09-18T14:59:02;13.90;99.90
19302;DHT22;9785;59.362;12.152;2023-09-18T15:01:33;14.00;99.90
19302;DHT22;9785;59.362;12.152;2023-09-18T15:04:01;14.00;99.90
19302;DHT22;9785;59.362;12.152;2023-09-18T15:06:30;14.00;99.90
19302;DHT22;9785;59.362;12.152;2023-09-18T15:08:59;14.00;99.90
19302;DHT22;9785;59.362;12.152;2023-09-18T15:11:30;14.10;99.90
19302;DHT22;9785;59.362;12.152;2023-09-18T15:13:58;14.10;99.90
19302;DHT22;9785;59.362;12.152;2023-09-18T15:16:26;14.10;99.90
19302;DHT22;9785;59.362;12.152;2023-09-18T15:18:58;14.00;99.90
19302;DHT22;9785;59.362;12.152;2023-09-18T15:21:29;14.00;99.90
19302;DHT22;9785;59.362;12.152;2023-09-18T15:23:57;14.00;99.90
19302;DHT22;9785;59.362;12.152;2023-09-18T15:26:26;14.00;99.90
19302;DHT22;9785;59.362;12.152;2023-09-18T15:28:55;14.10;99.90
19302;DHT22;9785;59.362;12.152;2023-09-18T15:31:23;14.10;99.90
19302;DHT22;9785;59.362;12.152;2023-09-18T15:33:52;14.00;99.90
19302;DHT22;9785;59.362;12.152;2023-09-18T15:36:23;13.90;99.90
19302;DHT22;9785;59.362;12.152;2023-09-18T15:38:52;14.00;99.90
19302;DHT22;9785;59.362;12.152;2023-09-18T15:41:21;14.00;99.90
19302;DHT22;9785;59.362;12.152;2023-09-18T15:43:50;14.00;99.90
19302;DHT22;9785;59.362;12.152;2023-09-18T15:46:18;14.10;99.90
19302;DHT22;9785;59.362;12.152;2023-09-18T15:48:46;14.10;99.90
19302;DHT22;9785;59.362;12.152;2023-09-18T15:51:16;14.00;99.90